createdAt,value
2023-01-17T00:02:22.269Z,51.00
2023-01-17T00:05:07.862Z,51.04
2023-01-17T00:07:53.899Z,50.82
2023-01-17T00:10:24.935Z,50.88
2023-01-17T00:12:57.501Z,50.92
2023-01-17T00:15:26.616Z,50.81
2023-01-17T00:17:54.662Z,50.74
2023-01-17T00:20:45.132Z,50.43
2023-01-17T00:23:57.732Z,50.48
2023-01-17T00:26:24.854Z,50.41
2023-01-17T00:28:51.916Z,50.20
2023-01-17T00:31:20.193Z,50.24
2023-01-17T00:33:47.206Z,50.10
2023-01-17T00:36:14.400Z,49.85
2023-01-17T00:38:41.941Z,49.52
2023-01-17T00:41:14.654Z,49.34
2023-01-17T00:44:00.084Z,48.75
2023-01-17T00:46:46.250Z,48.72
2023-01-17T00:49:32.305Z,48.58
2023-01-17T00:52:17.691Z,48.26
2023-01-17T00:55:03.118Z,47.17
2023-01-17T00:57:49.328Z,46.77
2023-01-17T01:00:37.890Z,46.16
2023-01-17T01:03:29.846Z,45.85
2023-01-17T01:06:15.676Z,45.74
2023-01-17T01:09:01.792Z,45.54
2023-01-17T01:11:47.311Z,45.07
2023-01-17T01:14:33.364Z,44.80
2023-01-17T01:17:18.819Z,44.91
2023-01-17T01:20:04.400Z,44.90
2023-01-17T01:22:50.093Z,44.75
2023-01-17T01:25:36.087Z,44.34
2023-01-17T01:28:29.728Z,44.96
2023-01-17T01:31:18.515Z,44.99
2023-01-17T01:33:45.574Z,44.96
2023-01-17T01:36:12.883Z,45.14
2023-01-17T01:38:40.111Z,45.02
2023-01-17T01:41:07.264Z,44.94
2023-01-17T01:43:55.650Z,45.27
2023-01-17T01:46:39.672Z,45.00
2023-01-17T01:49:21.972Z,44.92
2023-01-17T01:52:02.010Z,45.03
2023-01-17T01:54:44.632Z,45.05
2023-01-17T01:57:17.717Z,44.87
2023-01-17T01:59:55.107Z,44.84
2023-01-17T02:02:22.328Z,45.24
2023-01-17T02:04:50.578Z,45.32
2023-01-17T02:07:41.553Z,45.46
2023-01-17T02:10:09.774Z,45.65
2023-01-17T02:12:37.577Z,45.64
2023-01-17T02:15:07.698Z,45.46
2023-01-17T02:18:10.159Z,45.40
2023-01-17T02:21:10.520Z,45.20
2023-01-17T02:23:58.855Z,45.19
2023-01-17T02:26:49.831Z,44.94
2023-01-17T02:29:53.315Z,44.81
2023-01-17T02:32:51.409Z,45.09
2023-01-17T02:35:56.398Z,45.08
2023-01-17T02:38:32.397Z,45.09
2023-01-17T02:41:07.722Z,45.27
2023-01-17T02:43:36.639Z,45.13
2023-01-17T02:46:04.038Z,45.16
2023-01-17T02:48:36.997Z,45.22
2023-01-17T02:51:57.957Z,44.99
2023-01-17T02:54:49.446Z,45.13
2023-01-17T02:57:51.169Z,44.98
2023-01-17T03:00:39.568Z,45.14
2023-01-17T03:03:23.986Z,44.86
2023-01-17T03:06:14.181Z,44.64
2023-01-17T03:08:45.318Z,44.78
2023-01-17T03:11:13.527Z,44.96
2023-01-17T03:13:41.338Z,44.18
2023-01-17T03:16:21.354Z,44.14
2023-01-17T03:18:49.272Z,44.02
2023-01-17T03:21:16.764Z,43.97
2023-01-17T03:23:44.216Z,43.89
2023-01-17T03:26:11.381Z,43.75
2023-01-17T03:28:38.507Z,43.57
2023-01-17T03:31:05.981Z,43.68
2023-01-17T03:33:33.177Z,43.36
2023-01-17T03:36:00.583Z,43.21
2023-01-17T03:38:29.367Z,43.25
2023-01-17T03:40:56.472Z,43.66
2023-01-17T03:43:23.777Z,43.59
2023-01-17T03:45:54.426Z,43.57
2023-01-17T03:48:22.216Z,43.77
2023-01-17T03:50:52.309Z,43.90
2023-01-17T03:53:19.420Z,43.63
2023-01-17T03:55:47.133Z,43.54
2023-01-17T03:58:14.724Z,43.80
2023-01-17T04:00:42.354Z,43.86
2023-01-17T04:03:09.550Z,43.94
2023-01-17T04:05:36.661Z,44.02
2023-01-17T04:08:03.904Z,43.84
2023-01-17T04:10:30.993Z,43.95
2023-01-17T04:12:58.161Z,44.05
2023-01-17T04:15:25.327Z,43.76
2023-01-17T04:17:52.468Z,44.12
2023-01-17T04:20:34.721Z,44.56
2023-01-17T04:23:01.887Z,44.51
2023-01-17T04:25:30.888Z,44.46
2023-01-17T04:27:59.970Z,44.53
2023-01-17T04:30:28.490Z,44.29
2023-01-17T04:32:56.096Z,44.37
2023-01-17T04:35:23.705Z,44.52
2023-01-17T04:37:53.020Z,44.28
2023-01-17T04:40:20.208Z,43.97
2023-01-17T04:42:48.239Z,44.02
2023-01-17T04:45:16.210Z,44.40
2023-01-17T04:47:43.353Z,44.06
2023-01-17T04:50:11.790Z,43.88
2023-01-17T04:52:38.921Z,44.02
2023-01-17T04:55:07.119Z,43.88
2023-01-17T04:57:34.289Z,44.08
2023-01-17T05:00:01.377Z,43.96
2023-01-17T05:02:28.555Z,44.17
2023-01-17T05:04:55.631Z,44.17
2023-01-17T05:07:22.723Z,43.73
2023-01-17T05:09:49.791Z,43.80
2023-01-17T05:12:16.964Z,44.01
2023-01-17T05:14:44.016Z,43.91
2023-01-17T05:17:11.350Z,43.96
2023-01-17T05:19:38.493Z,43.79
2023-01-17T05:22:14.882Z,43.63
2023-01-17T05:24:43.864Z,43.47
2023-01-17T05:27:12.613Z,43.37
2023-01-17T05:29:40.336Z,43.63
2023-01-17T05:32:07.857Z,43.56
2023-01-17T05:34:35.186Z,43.52
2023-01-17T05:37:02.662Z,43.32
2023-01-17T05:39:31.027Z,43.23
2023-01-17T05:41:59.487Z,43.40
2023-01-17T05:44:27.800Z,43.25
2023-01-17T05:46:55.924Z,43.25
2023-01-17T05:49:23.095Z,43.28
2023-01-17T05:51:50.424Z,43.50
2023-01-17T05:54:17.843Z,43.30
2023-01-17T05:56:45.210Z,43.17
2023-01-17T05:59:14.167Z,43.07
2023-01-17T06:01:41.610Z,43.22
2023-01-17T06:04:08.682Z,43.40
2023-01-17T06:06:35.777Z,43.34
2023-01-17T06:09:02.962Z,43.66
2023-01-17T06:11:30.057Z,43.77
2023-01-17T06:13:57.139Z,43.53
2023-01-17T06:16:24.248Z,43.96
2023-01-17T06:18:51.443Z,44.31
2023-01-17T06:21:19.690Z,44.53
2023-01-17T06:23:46.924Z,44.67
2023-01-17T06:26:14.089Z,45.25
2023-01-17T06:28:41.188Z,44.89
2023-01-17T06:31:09.493Z,45.07
2023-01-17T06:33:36.692Z,45.13
2023-01-17T06:36:04.332Z,45.43
2023-01-17T06:38:31.672Z,45.35
2023-01-17T06:41:00.438Z,45.41
2023-01-17T06:43:32.601Z,45.08
2023-01-17T06:46:00.983Z,45.23
2023-01-17T06:48:28.196Z,45.31
2023-01-17T06:50:57.542Z,45.09
2023-01-17T06:53:24.684Z,45.07
2023-01-17T06:55:52.616Z,44.96
2023-01-17T06:58:19.725Z,44.92
2023-01-17T07:00:47.031Z,45.11
2023-01-17T07:03:26.218Z,45.04
2023-01-17T07:05:53.539Z,45.16
2023-01-17T07:08:20.874Z,45.04
2023-01-17T07:10:49.029Z,44.84
2023-01-17T07:13:16.386Z,45.06
2023-01-17T07:15:43.521Z,45.12
2023-01-17T07:18:10.702Z,44.88
2023-01-17T07:20:38.542Z,44.71
2023-01-17T07:23:06.774Z,44.76
2023-01-17T07:25:34.002Z,44.74
2023-01-17T07:28:01.059Z,44.55
2023-01-17T07:30:28.532Z,44.49
2023-01-17T07:32:56.318Z,44.67
2023-01-17T07:35:26.824Z,44.82
2023-01-17T07:37:55.086Z,44.94
2023-01-17T07:40:23.001Z,45.04
2023-01-17T07:42:50.116Z,45.21
2023-01-17T07:45:18.203Z,44.70
2023-01-17T07:47:45.474Z,44.89
2023-01-17T07:50:13.811Z,45.00
2023-01-17T07:52:41.373Z,45.14
2023-01-17T07:55:09.852Z,44.98
2023-01-17T07:57:36.960Z,45.38
2023-01-17T08:00:05.424Z,45.06
2023-01-17T08:02:39.493Z,45.11
2023-01-17T08:05:06.993Z,44.76
2023-01-17T08:07:34.251Z,44.52
2023-01-17T08:10:01.673Z,44.64
2023-01-17T08:12:29.620Z,44.88
2023-01-17T08:14:56.789Z,44.77
2023-01-17T08:17:23.850Z,44.90
2023-01-17T08:19:52.279Z,44.87
2023-01-17T08:22:20.280Z,45.20
2023-01-17T08:24:47.618Z,44.80
2023-01-17T08:27:15.277Z,44.75
2023-01-17T08:29:46.953Z,44.75
2023-01-17T08:32:14.887Z,44.64
2023-01-17T08:34:42.439Z,44.38
2023-01-17T08:37:09.653Z,44.13
2023-01-17T08:39:36.838Z,43.79
2023-01-17T08:42:04.620Z,44.15
2023-01-17T08:44:31.907Z,44.23
2023-01-17T08:46:59.556Z,44.23
2023-01-17T08:49:27.421Z,44.12
2023-01-17T08:51:54.796Z,44.44
2023-01-17T08:54:23.010Z,43.88
2023-01-17T08:56:52.834Z,44.31
2023-01-17T08:59:20.191Z,44.38
2023-01-17T09:01:47.518Z,43.99
2023-01-17T09:04:15.769Z,43.83
2023-01-17T09:06:48.557Z,44.04
2023-01-17T09:09:17.307Z,43.53
2023-01-17T09:11:44.405Z,43.64
2023-01-17T09:14:15.536Z,43.81
2023-01-17T09:16:42.801Z,43.55
2023-01-17T09:19:10.356Z,43.45
2023-01-17T09:21:37.437Z,43.56
2023-01-17T09:24:04.645Z,43.39
2023-01-17T09:26:31.916Z,42.75
2023-01-17T09:28:59.081Z,43.08
2023-01-17T09:31:27.292Z,43.06
2023-01-17T09:33:56.661Z,42.94
2023-01-17T09:36:29.012Z,42.76
2023-01-17T09:38:58.379Z,42.54
2023-01-17T09:42:05.712Z,42.98
2023-01-17T09:44:47.398Z,42.61
2023-01-17T09:47:40.765Z,42.09
2023-01-17T09:50:38.767Z,41.85
2023-01-17T09:53:13.443Z,41.82
2023-01-17T09:56:08.036Z,41.83
2023-01-17T09:58:49.199Z,41.68
2023-01-17T10:01:45.229Z,41.17
2023-01-17T10:04:36.810Z,41.21
2023-01-17T10:07:34.196Z,40.98
2023-01-17T10:10:55.156Z,40.53
2023-01-17T10:13:45.396Z,40.25
2023-01-17T10:16:31.591Z,40.11
2023-01-17T10:19:23.590Z,39.65
2023-01-17T10:22:38.839Z,39.83
2023-01-17T10:25:47.906Z,40.53
2023-01-17T10:28:25.250Z,40.42
2023-01-17T10:30:59.636Z,40.06
2023-01-17T10:33:41.737Z,40.19
2023-01-17T10:36:20.679Z,39.78
2023-01-17T10:38:59.585Z,39.50
2023-01-17T10:41:37.316Z,39.39
2023-01-17T10:44:13.702Z,39.28
2023-01-17T10:47:13.139Z,39.12
2023-01-17T10:49:52.857Z,39.29
2023-01-17T10:52:35.883Z,39.25
2023-01-17T10:55:37.342Z,38.65
2023-01-17T10:58:05.733Z,39.07
2023-01-17T11:00:46.538Z,39.05
2023-01-17T11:03:20.984Z,38.55
2023-01-17T11:06:19.220Z,38.03
2023-01-17T11:09:10.828Z,38.40
2023-01-17T11:11:50.491Z,39.04
2023-01-17T11:14:30.815Z,38.81
2023-01-17T11:17:09.060Z,38.56
2023-01-17T11:19:37.367Z,37.87
2023-01-17T11:22:06.901Z,38.04
2023-01-17T11:24:59.267Z,37.20
2023-01-17T11:27:41.035Z,36.77
2023-01-17T11:30:19.773Z,37.83
2023-01-17T11:33:04.389Z,37.78
2023-01-17T11:35:32.963Z,37.70
2023-01-17T11:38:02.807Z,35.63
2023-01-17T11:40:35.834Z,34.16
2023-01-17T11:43:12.721Z,33.59
2023-01-17T11:45:40.717Z,34.19
2023-01-17T11:48:14.791Z,32.83
2023-01-17T11:50:58.499Z,30.69
2023-01-17T11:53:28.050Z,28.73
2023-01-17T11:56:05.260Z,27.74
2023-01-17T11:58:36.013Z,26.87
2023-01-17T12:01:39.799Z,28.34
2023-01-17T12:04:20.338Z,28.16
2023-01-17T12:07:15.519Z,27.57
2023-01-17T12:09:56.351Z,27.35
2023-01-17T12:12:53.184Z,26.93
2023-01-17T12:15:33.643Z,28.07
2023-01-17T12:18:19.925Z,27.22
2023-01-17T12:21:16.945Z,26.61
2023-01-17T12:24:20.720Z,26.88
2023-01-17T12:27:24.942Z,25.57
2023-01-17T12:30:35.923Z,24.77
2023-01-17T12:33:41.119Z,24.10
2023-01-17T12:36:45.134Z,24.23
2023-01-17T12:39:14.419Z,26.25
2023-01-17T12:42:18.717Z,29.48
2023-01-17T12:45:08.323Z,31.49
2023-01-17T12:47:47.147Z,31.40
2023-01-17T12:50:43.371Z,29.15
2023-01-17T12:53:51.756Z,28.47
2023-01-17T12:57:08.923Z,27.63
2023-01-17T12:59:49.814Z,26.74
2023-01-17T13:02:36.540Z,26.23
2023-01-17T13:05:15.343Z,25.96
2023-01-17T13:08:30.512Z,26.49
2023-01-17T13:11:12.305Z,27.32
2023-01-17T13:13:41.981Z,27.04
2023-01-17T13:16:26.672Z,26.01
2023-01-17T13:18:55.776Z,25.77
2023-01-17T13:21:22.763Z,25.90
2023-01-17T13:24:02.235Z,24.80
2023-01-17T13:26:50.801Z,24.22
2023-01-17T13:30:07.741Z,26.80
2023-01-17T13:33:30.321Z,27.25
2023-01-17T13:36:19.142Z,25.12
2023-01-17T13:39:50.268Z,24.55
2023-01-17T13:42:40.343Z,24.91
2023-01-17T13:45:18.126Z,24.35
2023-01-17T13:47:45.256Z,23.82
2023-01-17T13:50:46.763Z,24.00
2023-01-17T13:53:29.214Z,24.07
2023-01-17T13:56:34.892Z,24.94
2023-01-17T13:59:05.016Z,25.12
2023-01-17T14:01:32.267Z,24.79
2023-01-17T14:03:59.379Z,24.10
2023-01-17T14:06:56.732Z,24.50
2023-01-17T14:09:29.601Z,24.63
2023-01-17T14:12:07.914Z,25.30
2023-01-17T14:14:41.100Z,26.16
2023-01-17T14:17:20.554Z,27.98
2023-01-17T14:19:53.736Z,30.00
2023-01-17T14:22:20.925Z,31.20
2023-01-17T14:25:10.020Z,32.41
2023-01-17T14:27:43.240Z,32.78
2023-01-17T14:30:33.826Z,33.44
2023-01-17T14:33:01.240Z,33.94
2023-01-17T14:35:30.068Z,34.52
2023-01-17T14:38:03.112Z,35.25
2023-01-17T14:40:33.684Z,35.56
2023-01-17T14:43:13.728Z,35.81
2023-01-17T14:45:42.509Z,36.18
2023-01-17T14:48:28.982Z,36.41
2023-01-17T14:51:00.082Z,37.02
2023-01-17T14:53:32.615Z,37.22
2023-01-17T14:56:15.204Z,36.97
2023-01-17T14:58:42.481Z,36.91
2023-01-17T15:01:21.307Z,37.24
2023-01-17T15:03:53.763Z,37.47
2023-01-17T15:06:41.873Z,37.84
2023-01-17T15:09:19.166Z,38.00
2023-01-17T15:11:49.186Z,38.31
2023-01-17T15:14:27.905Z,38.73
2023-01-17T15:16:55.756Z,39.05
2023-01-17T15:19:23.590Z,39.21
2023-01-17T15:21:54.025Z,39.40
2023-01-17T15:24:34.562Z,39.21
2023-01-17T15:27:02.316Z,39.16
2023-01-17T15:29:34.957Z,39.48
2023-01-17T15:32:05.619Z,39.34
2023-01-17T15:35:02.571Z,39.46
2023-01-17T15:37:33.203Z,39.32
2023-01-17T15:40:06.129Z,39.57
2023-01-17T15:42:36.778Z,39.57
2023-01-17T15:45:11.193Z,40.30
2023-01-17T15:47:39.489Z,39.92
2023-01-17T15:50:27.989Z,40.79
2023-01-17T15:53:01.060Z,41.16
2023-01-17T15:55:32.599Z,41.35
2023-01-17T15:58:00.701Z,41.42
2023-01-17T16:00:38.394Z,41.33
2023-01-17T16:03:27.337Z,41.24
2023-01-17T16:05:57.791Z,41.20
2023-01-17T16:08:32.528Z,41.36
2023-01-17T16:11:02.789Z,41.44
2023-01-17T16:13:39.220Z,41.48
2023-01-17T16:16:26.555Z,41.25
2023-01-17T16:19:00.932Z,41.31
2023-01-17T16:21:32.145Z,41.56
2023-01-17T16:24:00.320Z,41.56
2023-01-17T16:26:29.165Z,41.95
2023-01-17T16:28:56.680Z,41.35
2023-01-17T16:31:24.009Z,41.24
2023-01-17T16:33:51.292Z,40.71
2023-01-17T16:36:19.592Z,41.39
2023-01-17T16:38:50.952Z,41.80
2023-01-17T16:41:19.035Z,42.65
2023-01-17T16:43:46.129Z,42.88
2023-01-17T16:46:13.475Z,42.90
2023-01-17T16:48:40.633Z,42.92
2023-01-17T16:51:08.528Z,43.03
2023-01-17T16:53:37.552Z,43.66
2023-01-17T16:56:13.688Z,43.81
2023-01-17T16:58:41.606Z,43.66
2023-01-17T17:01:17.299Z,43.77
2023-01-17T17:03:45.234Z,43.53
2023-01-17T17:06:13.748Z,43.68
2023-01-17T17:08:41.173Z,43.81
2023-01-17T17:11:16.726Z,44.30
2023-01-17T17:13:46.721Z,44.41
2023-01-17T17:16:18.980Z,44.34
2023-01-17T17:18:55.071Z,44.42
2023-01-17T17:21:22.576Z,44.67
2023-01-17T17:23:56.905Z,44.83
2023-01-17T17:26:34.494Z,45.54
2023-01-17T17:29:02.370Z,45.68
2023-01-17T17:31:29.746Z,46.00
2023-01-17T17:34:01.483Z,45.88
2023-01-17T17:36:29.164Z,46.32
2023-01-17T17:38:57.705Z,46.51
2023-01-17T17:41:28.701Z,46.88
2023-01-17T17:43:56.856Z,46.91
2023-01-17T17:46:26.095Z,46.84
2023-01-17T17:48:53.852Z,46.72
2023-01-17T17:51:33.213Z,46.61
2023-01-17T17:54:13.066Z,46.61
2023-01-17T17:56:40.475Z,46.99
2023-01-17T17:59:09.216Z,46.93
2023-01-17T18:01:38.865Z,47.37
2023-01-17T18:04:07.656Z,47.82
2023-01-17T18:06:35.809Z,47.95
2023-01-17T18:09:03.757Z,47.86
2023-01-17T18:11:31.043Z,48.08
2023-01-17T18:14:01.808Z,48.01
2023-01-17T18:16:33.192Z,48.45
2023-01-17T18:19:00.456Z,48.60
2023-01-17T18:21:31.822Z,48.91
2023-01-17T18:24:20.909Z,48.80
2023-01-17T18:26:59.697Z,49.03
2023-01-17T18:29:27.415Z,49.36
2023-01-17T18:31:55.216Z,49.65
2023-01-17T18:34:28.520Z,49.47
2023-01-17T18:36:56.932Z,49.49
2023-01-17T18:39:27.826Z,49.47
2023-01-17T18:41:55.476Z,49.11
2023-01-17T18:44:22.849Z,49.27
2023-01-17T18:46:53.360Z,49.71
2023-01-17T18:49:20.875Z,49.62
2023-01-17T18:51:51.071Z,49.68
2023-01-17T18:54:19.959Z,49.76
2023-01-17T18:56:47.056Z,50.08
2023-01-17T18:59:18.283Z,49.67
2023-01-17T19:01:46.435Z,49.31
2023-01-17T19:04:17.189Z,49.14
2023-01-17T19:06:47.100Z,49.38
2023-01-17T19:09:15.893Z,49.68
2023-01-17T19:11:45.038Z,49.88
2023-01-17T19:14:13.061Z,50.09
2023-01-17T19:16:41.926Z,50.25
2023-01-17T19:19:15.129Z,50.38
2023-01-17T19:21:42.716Z,50.51
2023-01-17T19:24:13.249Z,50.67
2023-01-17T19:26:41.428Z,50.72
2023-01-17T19:29:08.712Z,50.72
2023-01-17T19:31:42.998Z,50.98
2023-01-17T19:34:13.952Z,50.88
2023-01-17T19:36:41.664Z,50.75
2023-01-17T19:39:09.876Z,51.06
2023-01-17T19:41:42.646Z,51.22
2023-01-17T19:44:13.727Z,51.35
2023-01-17T19:46:41.654Z,51.40
2023-01-17T19:49:09.551Z,51.16
2023-01-17T19:51:37.311Z,51.38
2023-01-17T19:54:06.564Z,51.31
2023-01-17T19:56:33.935Z,51.39
2023-01-17T19:59:01.767Z,51.51
2023-01-17T20:01:32.320Z,51.48
2023-01-17T20:04:01.296Z,51.74
2023-01-17T20:06:32.364Z,51.87
2023-01-17T20:08:59.796Z,51.77
2023-01-17T20:11:28.592Z,51.74
2023-01-17T20:13:58.283Z,51.79
2023-01-17T20:16:28.624Z,51.64
2023-01-17T20:18:57.410Z,51.82
2023-01-17T20:21:27.446Z,52.09
2023-01-17T20:23:56.958Z,51.81
2023-01-17T20:26:36.527Z,51.82
2023-01-17T20:29:10.753Z,51.54
2023-01-17T20:31:39.700Z,51.53
2023-01-17T20:34:10.731Z,51.71
2023-01-17T20:36:39.906Z,51.79
2023-01-17T20:39:08.702Z,51.98
2023-01-17T20:41:38.661Z,52.20
2023-01-17T20:44:09.034Z,51.98
2023-01-17T20:46:40.966Z,51.98
2023-01-17T20:49:15.726Z,52.30
2023-01-17T20:51:44.478Z,52.37
2023-01-17T20:54:16.735Z,52.13
2023-01-17T20:56:47.186Z,51.83
2023-01-17T20:59:18.540Z,51.95
2023-01-17T21:01:46.453Z,52.25
2023-01-17T21:04:14.832Z,52.01
2023-01-17T21:06:43.902Z,51.58
2023-01-17T21:09:15.368Z,51.76
2023-01-17T21:11:42.509Z,52.16
2023-01-17T21:14:09.782Z,52.16
2023-01-17T21:16:37.134Z,51.81
2023-01-17T21:19:04.588Z,51.88
2023-01-17T21:21:31.662Z,51.68
2023-01-17T21:23:59.751Z,51.59
2023-01-17T21:26:28.852Z,51.70
2023-01-17T21:28:56.191Z,51.75
2023-01-17T21:31:29.780Z,51.66
2023-01-17T21:34:02.935Z,51.69
2023-01-17T21:36:34.598Z,51.44
2023-01-17T21:39:04.842Z,51.64
2023-01-17T21:41:39.117Z,51.54
2023-01-17T21:44:12.439Z,51.66
2023-01-17T21:46:41.186Z,51.44
2023-01-17T21:49:13.069Z,51.44
2023-01-17T21:52:04.685Z,50.84
2023-01-17T21:54:50.775Z,50.68
2023-01-17T21:57:39.788Z,51.07
2023-01-17T22:00:14.490Z,51.17
2023-01-17T22:02:47.392Z,51.06
2023-01-17T22:05:16.909Z,50.90
2023-01-17T22:08:04.983Z,50.89
2023-01-17T22:10:32.798Z,50.93
2023-01-17T22:12:59.970Z,51.03
2023-01-17T22:15:27.024Z,51.03
2023-01-17T22:17:54.283Z,50.77
2023-01-17T22:20:21.484Z,51.28
2023-01-17T22:22:48.545Z,51.30
2023-01-17T22:25:15.674Z,51.24
2023-01-17T22:27:42.672Z,51.51
2023-01-17T22:30:13.031Z,51.38
2023-01-17T22:32:40.532Z,51.67
2023-01-17T22:35:08.384Z,51.44
2023-01-17T22:37:35.864Z,51.10
2023-01-17T22:40:04.983Z,51.16
2023-01-17T22:42:35.276Z,50.96
2023-01-17T22:45:02.417Z,51.19
2023-01-17T22:47:30.150Z,50.97
2023-01-17T22:49:57.221Z,51.03
2023-01-17T22:52:24.442Z,51.17
2023-01-17T22:54:51.807Z,51.25
2023-01-17T22:57:18.950Z,51.42
2023-01-17T22:59:45.995Z,51.25
2023-01-17T23:02:14.574Z,50.90
2023-01-17T23:04:42.780Z,51.09
2023-01-17T23:07:09.921Z,50.94
2023-01-17T23:09:37.283Z,51.42
2023-01-17T23:12:04.395Z,51.56
2023-01-17T23:14:52.743Z,51.96
2023-01-17T23:17:40.846Z,51.75
2023-01-17T23:20:10.217Z,50.70
2023-01-17T23:22:37.749Z,51.30
2023-01-17T23:25:11.771Z,51.52
2023-01-17T23:28:03.751Z,51.43
2023-01-17T23:30:38.768Z,51.57
2023-01-17T23:33:08.481Z,51.29
2023-01-17T23:35:41.696Z,51.01
2023-01-17T23:38:33.907Z,50.42
2023-01-17T23:41:27.715Z,50.57
2023-01-17T23:43:58.073Z,50.22
2023-01-17T23:46:26.748Z,49.48
2023-01-17T23:48:55.049Z,49.23
2023-01-17T23:51:22.841Z,49.25
2023-01-17T23:53:53.390Z,48.92
2023-01-17T23:56:23.368Z,48.82
2023-01-17T23:58:50.779Z,48.17
